Portada
METAR-TAF:

METAR-TAF

Aeroports :

Ilam, Iran

latitud: 33-35-09N, longitud: 046-24-20E, altitud: 1334 m

Observació

L'informe es va fer fa 51 minuts, a les 14:00 UTC
Vent 10 kt del Oest
Temperatura 36°C
Humitat 17%
Pressió 1006 hPa
Visibilitat 10 km o més
sense núvols per sota de 1500 mi sense presència de cumulonimbus.

METAR: OICI 141400Z 26010KT CAVOK 36/07 Q1006 A2972

Hora: 19:21 (14:51 UTC)

Pronòstic

L'informe es va fer fa 3 hores i 41 minuts, a les 11:10 UTC
Pronòstic vàlid del 14 a les 12 UTC al 15 a les 18 UTC
Vent 4 kt del Est/Sud-Est
Visibilitat: 8000 m
Temporalment
l' 14 a les 12 UTC al 14 a les 15 UTC
Vent 12 kt del Oest
Temporalment
l' 15 a les 09 UTC al 15 a les 15 UTC
Vent 10 kt del Oest

TAF: OICI 141110Z 1412/1518 11004KT 8000 NSC TEMPO 1412/1415 27012KT TEMPO 1509/1515 26010KT

Observacions i pronòstics meteorològics de més de 4000 aeroports (METAR i TAF).

Les estacions disponibles són els punts grocs i vermells al mapa.

Posi el ratolí al punt desitjat per veure el nom de l'estació.

Feu clic per veure les observacions i els pronòstics meteorològics.

Per canviar el mapa: feu clic els botons verds amb una creu de color negre per apropar; al botó verd amb un guió per allunyar la imatge; o en les fletxes verdes per a mapes adjacents.


METAR-TAF: